Time;durP1;ratioP1;P1;durP2;ratioP2;P2;SDS_P1;SDS_P2;PMS_P1;PMS_P2;Temp;Humidity;BMP_temperature;BMP_pressure;BME280_temperature;BME280_humidity;BME280_pressure;Samples;Min_cycle;Max_cycle;Signal;HPM_P1;HPM_P2
2023/09/18 00:02:34;;;;;;;8.55;5.63;;;18.10;99.90;;;16.84;100.00;100381.56;9892594;29;97800;-92
2023/09/18 00:07:38;;;;;;;8.10;5.50;;;18.00;99.90;;;16.83;100.00;100396.84;9890025;29;96732;-92
2023/09/18 00:12:42;;;;;;;8.50;5.57;;;18.00;99.90;;;16.78;100.00;100379.72;9923833;29;96868;-92
2023/09/18 00:17:45;;;;;;;8.45;5.80;;;17.90;99.90;;;16.73;100.00;100371.44;9866870;29;96901;-92
2023/09/18 00:22:49;;;;;;;8.02;5.28;;;17.90;99.90;;;16.70;100.00;100367.31;9890296;29;97321;-92
2023/09/18 00:27:53;;;;;;;10.15;6.70;;;17.90;99.90;;;16.70;100.00;100375.38;9882967;29;96751;-92
2023/09/18 00:32:56;;;;;;;9.50;5.50;;;17.90;99.90;;;16.69;100.00;100379.06;9879387;29;97533;-92
2023/09/18 00:38:03;;;;;;;6.75;4.38;;;17.90;99.90;;;16.69;100.00;100376.38;9886550;29;96907;-92
2023/09/18 00:43:09;;;;;;;7.65;5.45;;;17.80;99.90;;;16.67;100.00;100373.03;9892523;29;96628;-93
2023/09/18 00:48:16;;;;;;;6.80;4.50;;;17.80;99.90;;;16.63;100.00;100363.78;9879872;29;96778;-93
2023/09/18 00:53:23;;;;;;;7.65;5.13;;;17.80;99.90;;;16.58;100.00;100366.22;9883329;29;97217;-92
2023/09/18 00:58:28;;;;;;;6.80;4.60;;;17.70;99.90;;;16.54;100.00;100373.84;9895587;29;98192;-91
2023/09/18 01:03:32;;;;;;;7.45;4.85;;;17.70;99.90;;;16.46;100.00;100365.16;9889151;29;96737;-92
2023/09/18 01:08:36;;;;;;;7.35;4.97;;;17.60;99.90;;;16.42;100.00;100367.41;9866917;29;96529;-91
2023/09/18 01:13:58;;;;;;;8.93;5.07;;;17.60;99.90;;;16.40;100.00;100369.50;9864236;29;98729;-92
2023/09/18 01:19:03;;;;;;;7.20;4.88;;;17.60;99.90;;;16.31;100.00;100362.63;9894529;29;96631;-93
2023/09/18 01:24:07;;;;;;;6.15;4.13;;;17.50;99.90;;;16.30;100.00;100361.81;9877565;29;98867;-92
2023/09/18 01:29:11;;;;;;;8.10;5.80;;;17.50;99.90;;;16.26;100.00;100365.13;9896472;29;96494;-92
2023/09/18 01:34:17;;;;;;;7.85;5.43;;;17.40;99.90;;;16.26;100.00;100365.94;9880304;29;97564;-92
2023/09/18 01:39:21;;;;;;;7.32;4.78;;;17.50;99.90;;;16.23;100.00;100360.97;9899392;29;96997;-92
2023/09/18 01:44:25;;;;;;;8.82;5.32;;;17.40;99.90;;;16.21;100.00;100370.25;9875624;29;96677;-91
2023/09/18 01:49:33;;;;;;;7.13;4.60;;;17.40;99.90;;;16.14;100.00;100362.19;9909725;29;96806;-92
2023/09/18 01:54:36;;;;;;;6.90;4.32;;;17.40;99.90;;;16.08;100.00;100367.53;9864429;29;96961;-92
2023/09/18 01:59:41;;;;;;;8.02;4.97;;;17.30;99.90;;;16.04;100.00;100356.34;9886460;29;97591;-92
2023/09/18 02:04:46;;;;;;;9.07;5.47;;;17.30;99.90;;;16.01;100.00;100357.59;9874526;29;96729;-92
2023/09/18 02:10:12;;;;;;;6.95;4.60;;;17.20;99.90;;;15.99;100.00;100358.81;9903349;29;97708;-93
2023/09/18 02:15:16;;;;;;;7.00;4.85;;;17.10;99.90;;;15.95;100.00;100362.91;9894878;29;96716;-93
2023/09/18 02:20:20;;;;;;;10.30;4.60;;;17.10;99.90;;;15.92;100.00;100357.94;9895457;29;96737;-93
2023/09/18 02:25:24;;;;;;;7.13;4.55;;;17.10;99.90;;;15.87;100.00;100360.41;9871210;29;96718;-92
2023/09/18 02:30:28;;;;;;;8.50;5.38;;;17.10;99.90;;;15.85;100.00;100357.09;9881279;29;96943;-91
2023/09/18 02:35:32;;;;;;;8.63;5.43;;;17.00;99.90;;;15.82;100.00;100362.84;9873299;29;96811;-93
2023/09/18 02:40:35;;;;;;;7.05;4.68;;;17.00;99.90;;;15.80;100.00;100363.03;9871928;29;96682;-92
2023/09/18 02:45:40;;;;;;;9.23;5.72;;;17.00;99.90;;;15.76;100.00;100365.28;9866232;29;97340;-92
2023/09/18 02:50:44;;;;;;;8.45;5.05;;;17.00;99.90;;;15.78;100.00;100365.94;9888332;29;96968;-91
2023/09/18 02:55:54;;;;;;;11.13;6.35;;;17.00;99.90;;;15.82;100.00;100369.03;9877998;29;96601;-93
2023/09/18 03:00:59;;;;;;;8.93;5.22;;;17.00;99.90;;;15.85;100.00;100362.47;9902309;29;96850;-93
2023/09/18 03:06:04;;;;;;;8.07;4.88;;;17.00;99.90;;;15.86;100.00;100361.41;9896375;29;96878;-93
2023/09/18 03:11:13;;;;;;;7.88;5.30;;;17.10;99.90;;;15.89;100.00;100367.19;9886347;29;98390;-94
2023/09/18 03:16:17;;;;;;;9.68;5.10;;;17.10;99.90;;;15.91;100.00;100367.03;9892157;29;96711;-94
2023/09/18 03:21:20;;;;;;;7.00;4.80;;;17.10;99.90;;;15.87;100.00;100361.22;9878830;29;97398;-92
2023/09/18 03:26:24;;;;;;;6.53;4.22;;;17.10;99.90;;;15.88;100.00;100365.53;9884284;29;96601;-92
2023/09/18 03:31:29;;;;;;;7.72;4.75;;;17.00;99.90;;;15.78;100.00;100360.56;9915042;29;96622;-92
2023/09/18 03:36:32;;;;;;;7.65;4.95;;;17.00;99.90;;;15.80;100.00;100352.31;9860596;29;98254;-92
2023/09/18 03:41:36;;;;;;;9.48;4.43;;;17.00;99.90;;;15.78;100.00;100352.53;9910320;29;96563;-92
2023/09/18 03:46:40;;;;;;;11.65;5.35;;;17.00;99.90;;;15.74;100.00;100359.31;9905968;29;97084;-92
2023/09/18 03:51:44;;;;;;;7.88;5.15;;;17.00;99.90;;;15.69;100.00;100361.75;9880007;29;96858;-93
2023/09/18 03:56:48;;;;;;;8.63;5.15;;;16.90;99.90;;;15.62;100.00;100355.50;9894366;29;96567;-93
2023/09/18 04:01:52;;;;;;;9.13;4.63;;;16.80;99.90;;;15.60;100.00;100348.69;9894133;29;98984;-93
2023/09/18 04:06:56;;;;;;;8.02;4.80;;;16.80;99.90;;;15.53;100.00;100345.94;9882650;29;96527;-92
2023/09/18 04:12:01;;;;;;;9.73;5.32;;;16.70;99.90;;;15.51;100.00;100337.28;9881222;29;96635;-92
2023/09/18 04:17:05;;;;;;;8.20;5.00;;;16.70;99.90;;;15.49;100.00;100342.03;9879541;29;98124;-94
2023/09/18 04:22:09;;;;;;;10.80;6.47;;;16.70;99.90;;;15.49;100.00;100339.34;9877808;29;96615;-91
2023/09/18 04:27:12;;;;;;;10.25;5.40;;;16.70;99.90;;;15.48;100.00;100337.69;9885253;29;96906;-91
2023/09/18 04:32:16;;;;;;;11.88;6.38;;;16.70;99.90;;;15.49;100.00;100342.03;9884611;29;98728;-91
2023/09/18 04:37:20;;;;;;;8.60;5.20;;;16.70;99.90;;;15.50;100.00;100338.31;9894954;29;97399;-94
2023/09/18 04:42:23;;;;;;;10.23;5.85;;;16.70;99.90;;;15.51;100.00;100342.63;9913398;29;96732;-95
2023/09/18 04:47:27;;;;;;;9.65;5.68;;;16.80;99.90;;;15.52;100.00;100341.59;9879894;29;96732;-93
2023/09/18 04:52:30;;;;;;;9.80;6.07;;;16.80;99.90;;;15.54;100.00;100339.59;9866794;29;96704;-91
2023/09/18 04:57:34;;;;;;;7.43;4.75;;;16.70;99.90;;;15.57;100.00;100341.84;9873748;29;96744;-90
2023/09/18 05:02:39;;;;;;;9.15;5.15;;;16.80;99.90;;;15.61;100.00;100339.63;9902551;29;98430;-91
2023/09/18 05:07:44;;;;;;;9.45;6.20;;;16.80;99.90;;;15.68;100.00;100329.78;9889961;29;98787;-92
2023/09/18 05:12:50;;;;;;;10.35;5.85;;;16.90;99.90;;;15.79;100.00;100338.09;9891324;29;96569;-92
2023/09/18 05:17:58;;;;;;;8.00;4.78;;;17.00;99.90;;;15.84;100.00;100328.66;9913702;29;96847;-91
2023/09/18 05:23:02;;;;;;;7.82;4.97;;;17.10;99.90;;;15.95;100.00;100336.09;9877146;29;96961;-92
2023/09/18 05:28:05;;;;;;;8.38;5.35;;;17.20;99.90;;;16.02;100.00;100339.66;9878435;29;97283;-92
2023/09/18 05:33:09;;;;;;;8.10;4.80;;;17.20;99.90;;;16.12;100.00;100340.09;9905252;29;98054;-92
2023/09/18 05:38:14;;;;;;;7.15;4.07;;;17.30;99.90;;;16.21;100.00;100344.25;9879621;29;96515;-92
2023/09/18 05:43:18;;;;;;;7.57;4.40;;;17.40;99.90;;;16.33;100.00;100347.19;9874306;29;97458;-93
2023/09/18 05:48:21;;;;;;;8.93;4.90;;;17.50;99.90;;;16.46;100.00;100330.31;9910876;29;96762;-92
2023/09/18 05:53:25;;;;;;;7.25;4.57;;;17.60;99.90;;;16.62;100.00;100329.94;9892413;29;96866;-91
2023/09/18 05:58:32;;;;;;;8.60;4.75;;;17.80;99.90;;;16.75;100.00;100321.91;9917463;29;96643;-92
2023/09/18 06:03:36;;;;;;;9.93;5.60;;;17.90;99.90;;;16.91;100.00;100317.16;9887935;29;97326;-92
2023/09/18 06:08:39;;;;;;;7.85;5.45;;;18.10;99.90;;;17.06;100.00;100315.94;9877983;29;97445;-91
2023/09/18 06:13:43;;;;;;;8.07;5.07;;;18.30;99.90;;;17.26;100.00;100317.78;9864762;29;96703;-92
2023/09/18 06:18:47;;;;;;;9.48;5.30;;;18.40;99.90;;;17.38;100.00;100306.19;9872387;29;97432;-91
2023/09/18 06:23:51;;;;;;;8.32;5.20;;;18.60;99.90;;;17.59;100.00;100315.84;9869912;29;96597;-93
2023/09/18 06:28:55;;;;;;;9.85;4.93;;;18.80;99.90;;;17.73;100.00;100313.16;9908641;29;96971;-90
2023/09/18 06:33:59;;;;;;;8.13;5.03;;;18.90;99.90;;;17.89;100.00;100305.44;9883543;29;97527;-91
2023/09/18 06:39:03;;;;;;;7.28;4.53;;;19.10;99.90;;;18.06;100.00;100299.59;9887631;29;96511;-92
2023/09/18 06:44:09;;;;;;;7.85;5.38;;;19.30;99.90;;;18.17;100.00;100291.69;9881556;29;97398;-92
2023/09/18 06:49:13;;;;;;;6.82;4.80;;;19.40;99.90;;;18.33;100.00;100293.03;9884731;29;97172;-92
2023/09/18 06:54:17;;;;;;;9.90;6.05;;;19.60;99.90;;;18.48;99.65;100302.69;9877724;29;96709;-92
2023/09/18 06:59:20;;;;;;;7.38;4.55;;;19.70;99.90;;;18.65;99.11;100293.88;9929478;29;96386;-92
2023/09/18 07:04:24;;;;;;;12.07;5.13;;;19.90;99.90;;;18.82;97.98;100285.25;9913383;29;97374;-89
2023/09/18 07:09:28;;;;;;;8.48;4.70;;;20.00;99.90;;;18.97;96.83;100288.44;9915677;29;96604;-89
2023/09/18 07:14:32;;;;;;;11.20;5.38;;;20.20;99.90;;;19.09;94.47;100291.25;9878581;29;96763;-90
2023/09/18 07:19:35;;;;;;;7.05;4.78;;;20.30;99.90;;;19.25;93.96;100274.50;9887661;29;97772;-90
2023/09/18 07:24:41;;;;;;;7.43;4.47;;;20.50;99.90;;;19.43;91.62;100287.16;9879858;29;98777;-90
2023/09/18 07:29:45;;;;;;;6.78;4.18;;;20.70;99.90;;;19.59;90.27;100283.09;9879459;29;96774;-90
2023/09/18 07:34:49;;;;;;;7.88;5.25;;;20.80;99.90;;;19.81;89.15;100270.81;9884212;29;96974;-88
2023/09/18 07:39:53;;;;;;;7.40;4.40;;;21.10;99.90;;;20.03;87.71;100282.75;9876618;29;97359;-89
2023/09/18 07:44:57;;;;;;;7.05;4.30;;;21.30;99.90;;;20.23;85.86;100270.88;9876232;29;96965;-89
2023/09/18 07:50:02;;;;;;;6.70;4.28;;;21.50;99.90;;;20.53;84.74;100271.69;9881604;29;97101;-88
2023/09/18 07:55:06;;;;;;;7.65;5.30;;;21.70;99.90;;;20.79;82.82;100272.31;9874383;29;96841;-88
2023/09/18 08:00:12;;;;;;;6.10;3.92;;;22.00;99.40;;;20.98;80.44;100268.44;9880592;29;96930;-90
2023/09/18 08:05:19;;;;;;;7.55;4.38;;;22.20;98.80;;;21.06;80.11;100265.41;9889297;29;97385;-89
2023/09/18 08:10:23;;;;;;;5.97;4.50;;;22.30;98.40;;;21.19;78.05;100252.72;9918283;29;96808;-90
2023/09/18 08:15:28;;;;;;;6.43;4.05;;;22.50;97.90;;;21.43;78.60;100243.56;9886798;29;96614;-90
2023/09/18 08:20:32;;;;;;;7.32;4.15;;;22.60;97.80;;;21.65;77.22;100238.31;9892007;29;96852;-90
2023/09/18 08:25:36;;;;;;;5.72;3.70;;;22.90;97.30;;;21.88;76.35;100223.88;9884762;29;96708;-88
2023/09/18 08:30:40;;;;;;;5.68;3.58;;;23.10;96.80;;;22.21;75.63;100222.38;9862522;29;97934;-89
2023/09/18 08:35:46;;;;;;;5.00;3.88;;;23.40;96.60;;;22.44;74.30;100222.25;9905909;29;96609;-89
2023/09/18 08:40:55;;;;;;;7.95;4.40;;;23.60;96.00;;;22.74;72.07;100215.69;9885148;29;98996;-91
2023/09/18 08:46:04;;;;;;;5.68;3.88;;;23.90;95.40;;;22.96;71.41;100224.69;9870532;29;97030;-90
2023/09/18 08:51:08;;;;;;;7.43;4.07;;;24.10;94.80;;;23.12;69.46;100213.00;9915820;29;96595;-91
2023/09/18 08:56:14;;;;;;;5.47;3.22;;;24.30;94.30;;;23.33;68.31;100216.81;9881434;29;96931;-90
2023/09/18 09:01:19;;;;;;;5.10;3.92;;;24.50;93.50;;;23.47;67.13;100209.13;9874821;29;96510;-90
2023/09/18 09:06:23;;;;;;;6.05;3.83;;;24.60;93.10;;;23.62;66.34;100206.63;9858930;29;96754;-89
2023/09/18 09:11:27;;;;;;;6.18;3.70;;;24.80;92.50;;;23.84;65.79;100214.72;9896093;29;96711;-89
2023/09/18 09:16:31;;;;;;;6.03;3.45;;;24.90;92.30;;;24.09;65.48;100216.88;9862892;29;98581;-89
2023/09/18 09:21:43;;;;;;;5.25;3.63;;;25.20;92.20;;;24.33;63.53;100209.25;9894651;29;96588;-89
2023/09/18 09:26:58;;;;;;;5.43;4.05;;;25.50;91.20;;;24.53;63.05;100201.31;9876933;29;96597;-90
2023/09/18 09:32:17;;;;;;;7.32;3.97;;;25.70;91.20;;;24.79;62.25;100205.03;9880025;29;96492;-90
2023/09/18 09:37:31;;;;;;;5.30;4.00;;;25.90;90.90;;;24.94;61.50;100207.00;9911321;29;96608;-91
2023/09/18 09:42:42;;;;;;;5.78;4.00;;;26.10;90.50;;;25.18;60.25;100201.19;9851853;29;98912;-90
2023/09/18 09:47:46;;;;;;;5.03;3.53;;;26.30;89.50;;;25.35;59.43;100180.88;9891181;29;98615;-89
2023/09/18 09:52:53;;;;;;;4.80;3.72;;;26.50;88.50;;;25.48;58.72;100185.00;9862713;29;97371;-89
2023/09/18 09:58:04;;;;;;;5.20;3.55;;;26.70;86.90;;;25.67;57.88;100169.03;9875935;29;97172;-93
2023/09/18 10:03:10;;;;;;;4.40;3.50;;;26.90;86.70;;;25.94;57.48;100154.41;9908681;29;97466;-90
2023/09/18 10:08:22;;;;;;;4.93;3.50;;;27.10;85.70;;;26.13;56.12;100137.25;9910139;29;96555;-91
2023/09/18 10:13:56;;;;;;;4.32;3.42;;;27.30;84.00;;;26.34;55.53;100131.81;9926103;29;96609;-90
2023/09/18 10:19:35;;;;;;;4.75;3.47;;;27.40;84.30;;;26.61;55.28;100137.78;9878084;29;96736;-90
2023/09/18 10:24:43;;;;;;;4.93;3.45;;;27.70;83.20;;;26.67;53.63;100130.41;9896235;29;97219;-89
2023/09/18 10:29:51;;;;;;;4.55;3.38;;;27.80;82.10;;;26.79;53.92;100113.75;9904035;29;96656;-89
2023/09/18 10:34:56;;;;;;;4.80;3.28;;;27.90;82.30;;;26.97;53.01;100112.34;9905460;29;97514;-90
2023/09/18 10:40:00;;;;;;;4.20;3.50;;;28.10;81.60;;;26.99;53.05;100094.63;9891658;29;96903;-89
2023/09/18 10:45:06;;;;;;;5.13;3.30;;;28.20;80.90;;;27.11;52.87;100086.97;9891596;29;96724;-90
2023/09/18 10:50:10;;;;;;;7.53;3.90;;;28.20;80.60;;;27.18;52.14;100079.28;9875405;29;97798;-90
2023/09/18 10:55:14;;;;;;;4.15;3.58;;;28.30;79.80;;;27.21;51.23;100080.63;9883935;29;96673;-90
2023/09/18 11:00:22;;;;;;;6.38;3.42;;;28.40;78.30;;;27.28;50.33;100070.22;9879077;29;99008;-92
2023/09/18 11:06:06;;;;;;;5.00;3.50;;;28.50;76.70;;;27.34;50.57;100069.09;9879386;29;96664;-89
2023/09/18 11:11:14;;;;;;;5.22;3.97;;;28.60;77.60;;;27.50;50.41;100078.00;9878583;29;96635;-90
2023/09/18 11:16:38;;;;;;;6.13;4.30;;;28.80;77.10;;;27.75;49.13;100063.38;9881685;29;96696;-89
2023/09/18 11:21:42;;;;;;;5.25;3.55;;;29.10;76.00;;;28.08;49.03;100050.03;9886078;29;96530;-91
2023/09/18 11:26:49;;;;;;;4.30;3.50;;;29.30;75.90;;;28.13;48.13;100049.94;9900184;29;98255;-89
2023/09/18 11:31:57;;;;;;;6.60;3.80;;;29.40;74.40;;;28.21;47.42;100052.06;9864003;29;98588;-89
2023/09/18 11:37:22;;;;;;;6.97;4.22;;;29.40;74.10;;;28.36;48.03;100041.00;9884047;29;98577;-89
2023/09/18 11:42:26;;;;;;;5.55;3.95;;;29.50;74.50;;;28.30;48.02;100039.41;9883253;29;96675;-89
2023/09/18 11:47:32;;;;;;;6.45;4.20;;;29.50;74.10;;;28.34;47.49;100031.47;9875145;29;96801;-89
2023/09/18 11:52:36;;;;;;;6.13;4.18;;;29.40;73.50;;;28.30;47.50;100023.00;9873179;29;96727;-89
2023/09/18 11:57:43;;;;;;;4.60;3.88;;;29.40;73.70;;;28.18;47.53;100009.72;9878128;29;98223;-90
2023/09/18 12:02:48;;;;;;;5.77;4.00;;;29.30;73.40;;;27.94;47.69;100001.50;9907122;29;96830;-90
2023/09/18 12:07:53;;;;;;;4.95;3.88;;;29.10;73.40;;;27.87;48.80;99990.09;9883164;29;96694;-89
2023/09/18 12:12:58;;;;;;;5.15;3.92;;;28.90;74.20;;;27.90;48.58;99994.19;9894375;29;98618;-88
2023/09/18 12:18:07;;;;;;;5.60;4.15;;;28.90;73.90;;;27.87;48.07;99990.09;9922539;29;97406;-90
2023/09/18 12:23:11;;;;;;;5.85;3.85;;;29.00;73.50;;;27.76;48.19;99991.31;9876760;29;96767;-90
2023/09/18 12:28:16;;;;;;;5.35;4.05;;;28.90;73.60;;;27.61;47.78;99986.78;9894256;29;98701;-89
2023/09/18 12:33:21;;;;;;;6.20;4.03;;;28.70;73.20;;;27.46;48.50;99995.88;9881464;29;97891;-90
2023/09/18 12:38:27;;;;;;;5.40;4.22;;;28.60;73.30;;;27.27;48.62;99981.28;9884961;29;96651;-90
2023/09/18 12:43:39;;;;;;;5.70;4.13;;;28.40;73.30;;;27.11;48.28;99972.41;9920973;29;97010;-90
2023/09/18 12:48:47;;;;;;;4.63;3.92;;;28.20;72.90;;;27.16;48.39;99964.19;9916563;29;96608;-91
2023/09/18 12:54:00;;;;;;;8.52;4.45;;;28.20;73.00;;;27.20;47.81;99959.78;9878395;29;96769;-92
2023/09/18 12:59:05;;;;;;;5.53;3.53;;;28.20;72.20;;;27.12;47.72;99960.41;9873770;29;96639;-90
2023/09/18 13:04:20;;;;;;;6.22;4.22;;;28.20;72.40;;;27.05;48.49;99945.41;9880744;29;98702;-92
2023/09/18 13:09:23;;;;;;;4.80;3.38;;;28.10;72.60;;;27.02;48.65;99935.06;9881494;29;97074;-91
2023/09/18 13:14:27;;;;;;;4.50;3.55;;;28.10;72.70;;;27.19;48.60;99936.34;9908355;29;96817;-91
2023/09/18 13:19:31;;;;;;;5.35;3.70;;;28.20;73.00;;;27.34;46.60;99924.50;9918351;29;97473;-90
2023/09/18 13:24:37;;;;;;;6.47;3.67;;;28.40;71.20;;;27.52;46.54;99922.97;9917220;29;98236;-91
2023/09/18 13:29:41;;;;;;;4.95;3.70;;;28.50;70.80;;;27.53;46.22;99913.72;9876250;29;96574;-91
2023/09/18 13:34:47;;;;;;;6.82;3.90;;;28.60;70.40;;;27.53;46.75;99913.72;9896650;29;98001;-91
2023/09/18 13:39:51;;;;;;;4.90;3.88;;;28.50;70.80;;;27.56;46.94;99885.00;9880116;29;96973;-91
2023/09/18 13:44:55;;;;;;;6.55;3.90;;;28.60;70.90;;;27.61;46.86;99884.97;9889891;29;96937;-92
2023/09/18 13:50:00;;;;;;;4.75;3.60;;;28.60;70.70;;;27.73;45.66;99874.50;9915533;29;97100;-92
2023/09/18 13:55:05;;;;;;;5.75;4.22;;;28.80;69.90;;;27.75;45.29;99869.56;9923561;29;96659;-92
2023/09/18 14:00:11;;;;;;;5.25;3.47;;;28.80;69.40;;;27.80;45.51;99866.78;9875244;29;96680;-91
2023/09/18 14:05:15;;;;;;;4.15;3.40;;;28.90;69.40;;;27.79;45.30;99865.16;9912732;29;98559;-92
2023/09/18 14:10:22;;;;;;;4.80;3.85;;;28.90;69.10;;;27.62;45.42;99857.38;9898220;29;96511;-92
2023/09/18 14:15:26;;;;;;;5.05;3.88;;;28.80;69.20;;;27.41;46.26;99854.06;9894769;29;96632;-91
2023/09/18 14:20:30;;;;;;;4.45;3.25;;;28.50;69.40;;;27.27;45.92;99844.91;9933591;29;97166;-91
2023/09/18 14:25:34;;;;;;;6.38;4.05;;;28.30;69.50;;;27.21;46.49;99835.94;9889011;29;96526;-92
2023/09/18 14:30:38;;;;;;;4.60;3.70;;;28.30;69.80;;;27.20;46.84;99825.31;9883020;29;97006;-90
2023/09/18 14:35:41;;;;;;;5.07;3.67;;;28.30;69.90;;;27.12;46.13;99817.78;9897144;29;96692;-91
2023/09/18 14:40:47;;;;;;;5.07;3.47;;;28.20;69.60;;;27.07;46.84;99828.72;9883462;29;97890;-91
2023/09/18 14:45:52;;;;;;;6.57;3.67;;;28.10;70.00;;;27.05;47.13;99830.88;9897380;29;96577;-92
2023/09/18 14:50:57;;;;;;;5.50;3.97;;;28.10;70.40;;;27.01;47.80;99824.38;9903693;29;96675;-91
2023/09/18 14:56:01;;;;;;;4.60;3.47;;;28.10;70.50;;;27.00;47.12;99823.56;9888860;29;96542;-90
2023/09/18 15:01:06;;;;;;;4.97;3.72;;;28.10;70.50;;;26.95;46.96;99818.97;9915692;29;96956;-90
2023/09/18 15:06:10;;;;;;;4.70;3.58;;;28.10;70.20;;;26.92;47.05;99819.53;9904005;29;96859;-91
2023/09/18 15:11:17;;;;;;;5.45;3.97;;;28.00;70.70;;;26.94;47.50;99813.81;9899943;29;96642;-91
2023/09/18 15:16:21;;;;;;;7.72;3.90;;;28.00;70.60;;;26.95;48.04;99805.34;9851567;29;96490;-93
2023/09/18 15:21:25;;;;;;;4.63;3.40;;;28.00;70.70;;;26.95;47.18;99799.88;9884142;29;96713;-91
2023/09/18 15:26:28;;;;;;;5.75;3.75;;;28.10;70.60;;;26.93;48.09;99793.91;9883252;29;96715;-91
2023/09/18 15:31:32;;;;;;;5.30;3.35;;;28.00;70.70;;;26.94;47.86;99781.91;9902014;29;96575;-93
2023/09/18 15:36:35;;;;;;;6.10;4.07;;;28.10;70.90;;;26.87;47.98;99769.69;9895866;29;96503;-92
2023/09/18 15:41:39;;;;;;;4.93;3.33;;;28.00;71.50;;;26.81;48.55;99760.75;9932578;29;96736;-91
2023/09/18 15:46:43;;;;;;;5.95;4.55;;;28.00;71.10;;;26.74;48.54;99752.06;9902492;29;96690;-92
2023/09/18 15:51:47;;;;;;;5.60;3.35;;;27.90;71.30;;;26.73;49.07;99739.53;9902816;29;96504;-91
2023/09/18 15:56:51;;;;;;;4.65;3.38;;;27.80;71.50;;;26.67;49.09;99743.41;9885294;29;96671;-92
2023/09/18 16:01:55;;;;;;;4.78;3.72;;;27.80;71.60;;;26.60;49.05;99745.66;9918598;29;96920;-92
2023/09/18 16:06:59;;;;;;;5.03;3.40;;;27.70;71.60;;;26.51;49.48;99739.19;9887742;29;96503;-92
2023/09/18 16:12:03;;;;;;;4.43;3.22;;;27.60;71.80;;;26.42;49.29;99734.34;9900740;29;96529;-92
2023/09/18 16:17:06;;;;;;;4.10;3.17;;;27.50;71.90;;;26.32;49.66;99734.38;9887289;29;96461;-92
2023/09/18 16:22:11;;;;;;;4.80;3.42;;;27.50;72.10;;;26.21;49.67;99729.28;9884936;29;97277;-92
2023/09/18 16:27:15;;;;;;;4.07;3.38;;;27.30;72.20;;;26.11;50.10;99724.72;9915769;29;97335;-92
2023/09/18 16:32:21;;;;;;;4.57;3.00;;;27.20;72.40;;;25.99;50.34;99711.47;9896323;29;96838;-92
2023/09/18 16:37:25;;;;;;;4.38;3.28;;;27.10;72.60;;;25.86;50.51;99702.00;9915717;29;96419;-92
2023/09/18 16:42:28;;;;;;;5.15;3.60;;;27.00;72.70;;;25.71;51.56;99699.31;9884913;29;97404;-91
2023/09/18 16:47:35;;;;;;;4.38;3.05;;;26.90;73.10;;;25.57;52.68;99698.31;9885287;29;96890;-91
2023/09/18 16:52:45;;;;;;;5.53;3.97;;;26.70;73.70;;;25.37;53.36;99696.50;9897663;29;97114;-91
2023/09/18 16:57:50;;;;;;;5.32;3.55;;;26.40;74.20;;;25.16;54.05;99698.44;9904725;29;98276;-92
2023/09/18 17:02:54;;;;;;;6.28;4.25;;;26.30;74.70;;;24.98;54.68;99697.09;9901265;29;96496;-92
2023/09/18 17:07:58;;;;;;;7.05;4.68;;;26.00;75.10;;;24.83;54.90;99689.81;9898924;29;96632;-92
2023/09/18 17:13:03;;;;;;;5.47;3.70;;;25.90;75.60;;;24.70;55.47;99695.78;9908629;29;97282;-93
2023/09/18 17:18:08;;;;;;;6.20;3.80;;;25.80;76.00;;;24.54;55.82;99686.03;9899910;29;96595;-92
2023/09/18 17:23:12;;;;;;;6.72;4.32;;;25.60;76.30;;;24.39;56.46;99683.28;9887147;29;96403;-92
2023/09/18 17:28:15;;;;;;;6.53;4.38;;;25.50;76.70;;;24.21;57.27;99682.72;9884120;29;97788;-92
2023/09/18 17:33:19;;;;;;;9.00;4.65;;;25.30;77.30;;;24.04;57.95;99688.38;9888081;29;96581;-92
2023/09/18 17:38:25;;;;;;;7.13;4.30;;;25.10;77.80;;;23.93;58.23;99688.63;9897913;29;96522;-92
2023/09/18 17:43:28;;;;;;;5.60;3.35;;;25.00;78.10;;;23.80;59.07;99689.94;9879395;29;98457;-93
2023/09/18 17:48:32;;;;;;;5.10;2.90;;;24.80;78.40;;;23.71;58.80;99686.97;9922733;29;96607;-91
2023/09/18 17:53:36;;;;;;;6.18;3.17;;;24.80;78.60;;;23.67;59.16;99687.75;9883932;29;96602;-92
2023/09/18 17:58:40;;;;;;;4.80;3.17;;;24.70;78.70;;;23.63;59.31;99682.06;9887404;29;97530;-90
2023/09/18 18:03:48;;;;;;;6.22;3.47;;;24.70;78.90;;;23.57;59.33;99680.38;9878821;29;98217;-91
2023/09/18 18:08:53;;;;;;;5.85;3.78;;;24.60;79.10;;;23.49;60.22;99680.88;9882076;29;96466;-93
2023/09/18 18:13:58;;;;;;;5.97;3.90;;;24.50;79.40;;;23.40;60.47;99685.19;9881136;29;96596;-93
2023/09/18 18:19:04;;;;;;;6.30;3.15;;;24.50;80.40;;;23.31;60.94;99681.34;9895949;29;96805;-92
2023/09/18 18:24:09;;;;;;;5.53;3.47;;;24.40;80.10;;;23.28;60.76;99679.16;9896968;29;96676;-92
2023/09/18 18:29:15;;;;;;;4.47;3.25;;;24.30;80.10;;;23.27;60.45;99682.94;9916485;29;98551;-92
2023/09/18 18:34:24;;;;;;;4.45;3.10;;;24.30;80.10;;;23.33;60.68;99679.16;9899212;29;97465;-92
2023/09/18 18:39:29;;;;;;;5.60;3.40;;;24.40;80.20;;;23.31;60.66;99679.44;9912342;29;96578;-92
2023/09/18 18:44:33;;;;;;;5.07;2.80;;;24.40;80.20;;;23.31;59.75;99665.06;9892950;29;96864;-92
2023/09/18 18:49:37;;;;;;;5.28;3.63;;;24.40;80.10;;;23.31;60.03;99656.94;9883798;29;96889;-92
2023/09/18 18:54:42;;;;;;;5.10;3.25;;;24.40;80.10;;;23.30;60.08;99661.53;9899230;29;97675;-92
2023/09/18 18:59:47;;;;;;;3.63;3.00;;;24.40;80.70;;;23.27;60.45;99663.97;9914168;29;97927;-92
2023/09/18 19:04:50;;;;;;;4.50;2.88;;;24.30;80.10;;;23.32;58.51;99659.38;9874914;29;98261;-92
2023/09/18 19:09:56;;;;;;;4.85;3.03;;;24.40;79.60;;;23.40;57.37;99649.94;9924646;29;97635;-92
2023/09/18 19:15:05;;;;;;;4.25;2.83;;;24.40;79.00;;;23.53;56.35;99651.34;9899445;29;97672;-91
2023/09/18 19:20:10;;;;;;;4.55;3.10;;;24.50;78.40;;;23.64;54.76;99639.47;9883587;29;97721;-92
2023/09/18 19:25:14;;;;;;;6.15;3.65;;;24.60;77.10;;;23.77;54.46;99631.63;9884857;29;99450;-92
2023/09/18 19:30:18;;;;;;;4.68;2.72;;;24.70;76.80;;;23.84;53.25;99627.84;9902001;29;97012;-92
2023/09/18 19:35:22;;;;;;;3.83;2.47;;;24.80;76.00;;;23.90;53.21;99640.34;9891209;29;96648;-92
2023/09/18 19:40:31;;;;;;;6.80;2.70;;;24.90;75.70;;;23.93;52.80;99640.63;9943151;29;97243;-91
2023/09/18 19:45:35;;;;;;;5.78;3.17;;;24.90;75.20;;;23.95;52.97;99619.44;9897223;29;96589;-92
2023/09/18 19:50:38;;;;;;;5.10;2.58;;;25.00;75.10;;;23.98;53.19;99624.31;9883880;29;96674;-93
2023/09/18 19:55:42;;;;;;;7.40;3.08;;;25.00;75.10;;;23.97;52.80;99619.16;9912114;29;97420;-93
2023/09/18 20:00:51;;;;;;;5.00;3.30;;;25.00;74.90;;;23.91;52.71;99601.25;9881270;29;96813;-92
2023/09/18 20:05:55;;;;;;;5.57;2.50;;;25.00;74.90;;;23.87;53.15;99609.13;9898845;29;98348;-92
2023/09/18 20:11:03;;;;;;;3.45;2.45;;;25.00;75.00;;;23.80;53.86;99608.56;9910335;29;96825;-93
2023/09/18 20:16:06;;;;;;;4.05;2.38;;;24.90;75.10;;;23.71;53.67;99616.44;9890570;29;96629;-93
2023/09/18 20:21:12;;;;;;;4.05;2.70;;;24.80;75.20;;;23.59;54.68;99613.13;9885943;29;98862;-92
2023/09/18 20:26:16;;;;;;;4.57;3.03;;;24.70;75.50;;;23.47;55.40;99624.19;9889049;29;96710;-92
2023/09/18 20:31:21;;;;;;;2.83;2.03;;;24.50;75.90;;;23.31;55.88;99622.50;9913676;29;96657;-91
2023/09/18 20:36:25;;;;;;;3.58;2.45;;;24.40;76.30;;;23.18;56.31;99618.41;9900547;29;97907;-91
2023/09/18 20:41:33;;;;;;;4.85;2.85;;;24.30;76.70;;;23.10;56.53;99612.69;9914152;29;96575;-92
2023/09/18 20:46:37;;;;;;;4.60;2.78;;;24.20;76.90;;;23.02;56.83;99600.44;9898338;29;96968;-91
2023/09/18 20:51:41;;;;;;;4.78;3.35;;;24.10;77.60;;;23.00;56.89;99604.50;9896355;29;96758;-92
2023/09/18 20:56:45;;;;;;;5.07;3.00;;;24.10;77.20;;;22.94;57.08;99600.94;9873032;29;97324;-91
2023/09/18 21:01:49;;;;;;;7.68;4.15;;;24.00;77.40;;;22.86;57.72;99593.31;9878607;29;98633;-90
2023/09/18 21:06:53;;;;;;;7.90;5.25;;;23.90;77.70;;;22.77;58.56;99600.28;9864076;29;96714;-90
2023/09/18 21:11:57;;;;;;;7.15;4.18;;;23.90;78.20;;;22.64;58.93;99599.66;9892429;29;98379;-91